sensor_id;sensor_type;location;lat;lon;timestamp;P1;durP1;ratioP1;P2;durP2;ratioP2
76065;SDS011;64763;48.928;8.474;2023-07-24T00:01:11;8.37;;;4.93;;
76065;SDS011;64763;48.928;8.474;2023-07-24T00:03:36;8.37;;;5.47;;
76065;SDS011;64763;48.928;8.474;2023-07-24T00:06:01;8.50;;;5.78;;
76065;SDS011;64763;48.928;8.474;2023-07-24T00:08:26;8.27;;;5.43;;
76065;SDS011;64763;48.928;8.474;2023-07-24T00:10:52;9.37;;;5.17;;
76065;SDS011;64763;48.928;8.474;2023-07-24T00:13:17;9.50;;;5.63;;
76065;SDS011;64763;48.928;8.474;2023-07-24T00:15:42;10.73;;;6.47;;
76065;SDS011;64763;48.928;8.474;2023-07-24T00:18:07;9.30;;;5.67;;
76065;SDS011;64763;48.928;8.474;2023-07-24T00:20:32;10.38;;;5.60;;
76065;SDS011;64763;48.928;8.474;2023-07-24T00:22:58;9.10;;;5.83;;
76065;SDS011;64763;48.928;8.474;2023-07-24T00:25:23;10.73;;;5.80;;
76065;SDS011;64763;48.928;8.474;2023-07-24T00:27:48;11.40;;;5.53;;
76065;SDS011;64763;48.928;8.474;2023-07-24T00:30:13;9.90;;;5.97;;
76065;SDS011;64763;48.928;8.474;2023-07-24T00:32:38;10.17;;;6.20;;
76065;SDS011;64763;48.928;8.474;2023-07-24T00:35:04;10.60;;;5.97;;
76065;SDS011;64763;48.928;8.474;2023-07-24T00:37:29;9.63;;;5.65;;
76065;SDS011;64763;48.928;8.474;2023-07-24T00:39:54;10.30;;;5.77;;
76065;SDS011;64763;48.928;8.474;2023-07-24T00:42:20;10.27;;;6.33;;
76065;SDS011;64763;48.928;8.474;2023-07-24T00:44:45;9.57;;;5.80;;
76065;SDS011;64763;48.928;8.474;2023-07-24T00:47:10;9.03;;;5.80;;
76065;SDS011;64763;48.928;8.474;2023-07-24T00:49:35;9.20;;;6.10;;
76065;SDS011;64763;48.928;8.474;2023-07-24T00:52:01;9.02;;;5.95;;
76065;SDS011;64763;48.928;8.474;2023-07-24T00:54:26;9.50;;;6.13;;
76065;SDS011;64763;48.928;8.474;2023-07-24T00:56:53;10.85;;;5.75;;
76065;SDS011;64763;48.928;8.474;2023-07-24T00:59:18;9.98;;;6.45;;
76065;SDS011;64763;48.928;8.474;2023-07-24T01:01:44;11.77;;;6.13;;
76065;SDS011;64763;48.928;8.474;2023-07-24T01:04:09;11.27;;;6.10;;
76065;SDS011;64763;48.928;8.474;2023-07-24T01:06:34;10.33;;;5.93;;
76065;SDS011;64763;48.928;8.474;2023-07-24T01:08:59;9.60;;;5.83;;
76065;SDS011;64763;48.928;8.474;2023-07-24T01:11:27;12.07;;;6.80;;
76065;SDS011;64763;48.928;8.474;2023-07-24T01:13:56;12.07;;;6.43;;
76065;SDS011;64763;48.928;8.474;2023-07-24T01:16:22;11.10;;;6.95;;
76065;SDS011;64763;48.928;8.474;2023-07-24T01:18:50;12.13;;;6.78;;
76065;SDS011;64763;48.928;8.474;2023-07-24T01:21:16;11.30;;;6.35;;
76065;SDS011;64763;48.928;8.474;2023-07-24T01:23:58;11.93;;;6.70;;
76065;SDS011;64763;48.928;8.474;2023-07-24T01:26:24;11.27;;;6.22;;
76065;SDS011;64763;48.928;8.474;2023-07-24T01:28:50;9.70;;;6.28;;
76065;SDS011;64763;48.928;8.474;2023-07-24T01:31:15;10.40;;;6.27;;
76065;SDS011;64763;48.928;8.474;2023-07-24T01:33:41;10.23;;;6.03;;
76065;SDS011;64763;48.928;8.474;2023-07-24T01:36:07;11.07;;;6.32;;
76065;SDS011;64763;48.928;8.474;2023-07-24T01:38:32;10.93;;;6.45;;
76065;SDS011;64763;48.928;8.474;2023-07-24T01:40:59;11.38;;;6.93;;
76065;SDS011;64763;48.928;8.474;2023-07-24T01:43:24;9.95;;;6.18;;
76065;SDS011;64763;48.928;8.474;2023-07-24T01:45:52;9.68;;;6.35;;
76065;SDS011;64763;48.928;8.474;2023-07-24T01:48:17;13.33;;;6.53;;
76065;SDS011;64763;48.928;8.474;2023-07-24T01:50:42;9.50;;;5.77;;
76065;SDS011;64763;48.928;8.474;2023-07-24T01:53:07;10.97;;;6.17;;
76065;SDS011;64763;48.928;8.474;2023-07-24T01:55:33;10.35;;;6.25;;
76065;SDS011;64763;48.928;8.474;2023-07-24T01:57:58;10.73;;;6.70;;
76065;SDS011;64763;48.928;8.474;2023-07-24T02:00:23;9.33;;;5.97;;
76065;SDS011;64763;48.928;8.474;2023-07-24T02:02:48;12.87;;;7.07;;
76065;SDS011;64763;48.928;8.474;2023-07-24T02:05:13;14.30;;;6.73;;
76065;SDS011;64763;48.928;8.474;2023-07-24T02:07:39;9.73;;;6.60;;
76065;SDS011;64763;48.928;8.474;2023-07-24T02:10:04;10.93;;;6.33;;
76065;SDS011;64763;48.928;8.474;2023-07-24T02:12:29;11.63;;;6.55;;
76065;SDS011;64763;48.928;8.474;2023-07-24T02:14:54;10.70;;;6.03;;
76065;SDS011;64763;48.928;8.474;2023-07-24T02:17:20;9.93;;;6.18;;
76065;SDS011;64763;48.928;8.474;2023-07-24T02:19:45;12.80;;;7.10;;
76065;SDS011;64763;48.928;8.474;2023-07-24T02:22:10;13.43;;;7.53;;
76065;SDS011;64763;48.928;8.474;2023-07-24T02:24:36;11.67;;;6.60;;
76065;SDS011;64763;48.928;8.474;2023-07-24T02:27:01;11.17;;;6.17;;
76065;SDS011;64763;48.928;8.474;2023-07-24T02:29:26;10.00;;;6.45;;
76065;SDS011;64763;48.928;8.474;2023-07-24T02:31:53;10.07;;;5.70;;
76065;SDS011;64763;48.928;8.474;2023-07-24T02:34:18;10.88;;;7.00;;
76065;SDS011;64763;48.928;8.474;2023-07-24T02:36:43;9.93;;;6.23;;
76065;SDS011;64763;48.928;8.474;2023-07-24T02:39:08;10.43;;;6.37;;
76065;SDS011;64763;48.928;8.474;2023-07-24T02:41:34;10.27;;;6.03;;
76065;SDS011;64763;48.928;8.474;2023-07-24T02:43:59;9.43;;;6.13;;
76065;SDS011;64763;48.928;8.474;2023-07-24T02:46:24;11.13;;;6.27;;
76065;SDS011;64763;48.928;8.474;2023-07-24T02:48:50;11.02;;;6.68;;
76065;SDS011;64763;48.928;8.474;2023-07-24T02:51:15;10.18;;;6.38;;
76065;SDS011;64763;48.928;8.474;2023-07-24T02:53:40;9.53;;;6.00;;
76065;SDS011;64763;48.928;8.474;2023-07-24T02:56:05;11.13;;;6.17;;
76065;SDS011;64763;48.928;8.474;2023-07-24T02:58:31;9.67;;;6.27;;
76065;SDS011;64763;48.928;8.474;2023-07-24T03:01:03;12.43;;;6.97;;
76065;SDS011;64763;48.928;8.474;2023-07-24T03:03:31;10.77;;;6.38;;
76065;SDS011;64763;48.928;8.474;2023-07-24T03:05:56;14.38;;;6.78;;
76065;SDS011;64763;48.928;8.474;2023-07-24T03:08:22;10.27;;;6.13;;
76065;SDS011;64763;48.928;8.474;2023-07-24T03:10:47;11.03;;;6.33;;
76065;SDS011;64763;48.928;8.474;2023-07-24T03:13:12;10.20;;;6.37;;
76065;SDS011;64763;48.928;8.474;2023-07-24T03:15:37;9.83;;;6.33;;
76065;SDS011;64763;48.928;8.474;2023-07-24T03:18:02;9.47;;;6.13;;
76065;SDS011;64763;48.928;8.474;2023-07-24T03:20:28;10.17;;;6.60;;
76065;SDS011;64763;48.928;8.474;2023-07-24T03:22:53;9.50;;;6.53;;
76065;SDS011;64763;48.928;8.474;2023-07-24T03:25:18;10.77;;;6.17;;
76065;SDS011;64763;48.928;8.474;2023-07-24T03:27:43;9.83;;;6.47;;
76065;SDS011;64763;48.928;8.474;2023-07-24T03:30:08;11.20;;;6.67;;
76065;SDS011;64763;48.928;8.474;2023-07-24T03:32:35;9.35;;;6.30;;
76065;SDS011;64763;48.928;8.474;2023-07-24T03:35:00;11.82;;;6.50;;
76065;SDS011;64763;48.928;8.474;2023-07-24T03:37:25;10.67;;;6.40;;
76065;SDS011;64763;48.928;8.474;2023-07-24T03:39:51;9.43;;;6.17;;
76065;SDS011;64763;48.928;8.474;2023-07-24T03:42:27;11.85;;;6.80;;
76065;SDS011;64763;48.928;8.474;2023-07-24T03:44:53;8.88;;;5.97;;
76065;SDS011;64763;48.928;8.474;2023-07-24T03:47:18;9.68;;;6.20;;
76065;SDS011;64763;48.928;8.474;2023-07-24T03:49:44;11.17;;;6.43;;
76065;SDS011;64763;48.928;8.474;2023-07-24T03:52:09;10.40;;;7.03;;
76065;SDS011;64763;48.928;8.474;2023-07-24T03:54:34;12.10;;;7.07;;
76065;SDS011;64763;48.928;8.474;2023-07-24T03:56:59;10.97;;;6.33;;
76065;SDS011;64763;48.928;8.474;2023-07-24T03:59:24;11.50;;;6.20;;
76065;SDS011;64763;48.928;8.474;2023-07-24T04:01:50;10.20;;;6.33;;
76065;SDS011;64763;48.928;8.474;2023-07-24T04:04:15;9.40;;;6.43;;
76065;SDS011;64763;48.928;8.474;2023-07-24T04:06:40;10.87;;;6.73;;
76065;SDS011;64763;48.928;8.474;2023-07-24T04:09:05;10.33;;;6.17;;
76065;SDS011;64763;48.928;8.474;2023-07-24T04:11:31;10.57;;;6.53;;
76065;SDS011;64763;48.928;8.474;2023-07-24T04:13:56;10.67;;;6.50;;
76065;SDS011;64763;48.928;8.474;2023-07-24T04:16:21;9.23;;;5.90;;
76065;SDS011;64763;48.928;8.474;2023-07-24T04:18:46;10.43;;;6.37;;
76065;SDS011;64763;48.928;8.474;2023-07-24T04:21:11;11.23;;;6.90;;
76065;SDS011;64763;48.928;8.474;2023-07-24T04:23:37;10.32;;;6.32;;
76065;SDS011;64763;48.928;8.474;2023-07-24T04:26:02;10.70;;;6.83;;
76065;SDS011;64763;48.928;8.474;2023-07-24T04:28:27;11.27;;;6.67;;
76065;SDS011;64763;48.928;8.474;2023-07-24T04:30:52;11.33;;;6.77;;
76065;SDS011;64763;48.928;8.474;2023-07-24T04:33:17;11.87;;;6.80;;
76065;SDS011;64763;48.928;8.474;2023-07-24T04:35:43;10.13;;;6.20;;
76065;SDS011;64763;48.928;8.474;2023-07-24T04:38:08;10.37;;;6.83;;
76065;SDS011;64763;48.928;8.474;2023-07-24T04:40:33;11.73;;;7.33;;
76065;SDS011;64763;48.928;8.474;2023-07-24T04:42:58;9.50;;;6.60;;
76065;SDS011;64763;48.928;8.474;2023-07-24T04:45:23;9.87;;;6.37;;
76065;SDS011;64763;48.928;8.474;2023-07-24T04:47:49;11.17;;;6.70;;
76065;SDS011;64763;48.928;8.474;2023-07-24T04:50:14;10.40;;;6.37;;
76065;SDS011;64763;48.928;8.474;2023-07-24T04:52:39;9.63;;;6.60;;
76065;SDS011;64763;48.928;8.474;2023-07-24T04:55:04;9.93;;;6.45;;
76065;SDS011;64763;48.928;8.474;2023-07-24T04:57:30;9.70;;;6.40;;
76065;SDS011;64763;48.928;8.474;2023-07-24T04:59:55;10.90;;;6.47;;
76065;SDS011;64763;48.928;8.474;2023-07-24T05:02:20;11.10;;;6.83;;
76065;SDS011;64763;48.928;8.474;2023-07-24T05:04:45;10.10;;;6.47;;
76065;SDS011;64763;48.928;8.474;2023-07-24T05:07:11;10.43;;;6.97;;
76065;SDS011;64763;48.928;8.474;2023-07-24T05:09:36;11.53;;;6.80;;
76065;SDS011;64763;48.928;8.474;2023-07-24T05:12:01;12.73;;;6.47;;
76065;SDS011;64763;48.928;8.474;2023-07-24T05:14:26;10.80;;;6.20;;
76065;SDS011;64763;48.928;8.474;2023-07-24T05:16:52;11.73;;;7.23;;
76065;SDS011;64763;48.928;8.474;2023-07-24T05:19:17;10.87;;;5.93;;
76065;SDS011;64763;48.928;8.474;2023-07-24T05:21:42;9.83;;;6.50;;
76065;SDS011;64763;48.928;8.474;2023-07-24T05:24:07;11.53;;;6.67;;
76065;SDS011;64763;48.928;8.474;2023-07-24T05:26:32;11.07;;;6.63;;
76065;SDS011;64763;48.928;8.474;2023-07-24T05:28:58;9.17;;;6.53;;
76065;SDS011;64763;48.928;8.474;2023-07-24T05:31:23;11.63;;;6.40;;
76065;SDS011;64763;48.928;8.474;2023-07-24T05:33:48;10.43;;;7.00;;
76065;SDS011;64763;48.928;8.474;2023-07-24T05:36:13;10.73;;;7.40;;
76065;SDS011;64763;48.928;8.474;2023-07-24T05:38:38;12.67;;;7.67;;
76065;SDS011;64763;48.928;8.474;2023-07-24T05:41:04;11.88;;;7.13;;
76065;SDS011;64763;48.928;8.474;2023-07-24T05:43:29;9.43;;;6.47;;
76065;SDS011;64763;48.928;8.474;2023-07-24T05:45:55;11.80;;;6.05;;
76065;SDS011;64763;48.928;8.474;2023-07-24T05:48:21;9.57;;;6.07;;
76065;SDS011;64763;48.928;8.474;2023-07-24T05:50:46;10.33;;;6.23;;
76065;SDS011;64763;48.928;8.474;2023-07-24T05:53:12;8.60;;;6.00;;
76065;SDS011;64763;48.928;8.474;2023-07-24T05:55:37;12.75;;;7.00;;
76065;SDS011;64763;48.928;8.474;2023-07-24T05:58:03;7.57;;;5.47;;
76065;SDS011;64763;48.928;8.474;2023-07-24T06:00:28;8.93;;;6.27;;
76065;SDS011;64763;48.928;8.474;2023-07-24T06:02:53;9.55;;;5.88;;
76065;SDS011;64763;48.928;8.474;2023-07-24T06:05:19;12.23;;;6.60;;
76065;SDS011;64763;48.928;8.474;2023-07-24T06:07:45;10.00;;;7.28;;
76065;SDS011;64763;48.928;8.474;2023-07-24T06:10:10;11.38;;;6.75;;
76065;SDS011;64763;48.928;8.474;2023-07-24T06:12:35;12.87;;;6.57;;
76065;SDS011;64763;48.928;8.474;2023-07-24T06:15:00;11.97;;;6.63;;
76065;SDS011;64763;48.928;8.474;2023-07-24T06:17:25;9.43;;;6.07;;
76065;SDS011;64763;48.928;8.474;2023-07-24T06:19:51;9.13;;;5.87;;
76065;SDS011;64763;48.928;8.474;2023-07-24T06:22:16;11.00;;;6.30;;
76065;SDS011;64763;48.928;8.474;2023-07-24T06:24:41;10.20;;;6.33;;
76065;SDS011;64763;48.928;8.474;2023-07-24T06:27:06;8.27;;;6.03;;
76065;SDS011;64763;48.928;8.474;2023-07-24T06:29:32;9.83;;;6.47;;
76065;SDS011;64763;48.928;8.474;2023-07-24T06:31:57;11.55;;;6.22;;
76065;SDS011;64763;48.928;8.474;2023-07-24T06:34:22;10.50;;;6.13;;
76065;SDS011;64763;48.928;8.474;2023-07-24T06:36:47;10.13;;;6.53;;
76065;SDS011;64763;48.928;8.474;2023-07-24T06:39:13;10.00;;;6.10;;
76065;SDS011;64763;48.928;8.474;2023-07-24T06:41:38;9.90;;;5.80;;
76065;SDS011;64763;48.928;8.474;2023-07-24T06:44:03;10.43;;;6.00;;
76065;SDS011;64763;48.928;8.474;2023-07-24T06:46:28;9.90;;;6.63;;
76065;SDS011;64763;48.928;8.474;2023-07-24T06:48:53;11.03;;;6.93;;
76065;SDS011;64763;48.928;8.474;2023-07-24T06:51:19;9.37;;;6.40;;
76065;SDS011;64763;48.928;8.474;2023-07-24T06:53:44;11.80;;;5.93;;
76065;SDS011;64763;48.928;8.474;2023-07-24T06:56:09;10.23;;;5.93;;
76065;SDS011;64763;48.928;8.474;2023-07-24T06:58:34;10.87;;;6.50;;
76065;SDS011;64763;48.928;8.474;2023-07-24T07:01:00;10.77;;;6.07;;
76065;SDS011;64763;48.928;8.474;2023-07-24T07:03:25;10.97;;;5.90;;
76065;SDS011;64763;48.928;8.474;2023-07-24T07:05:50;8.90;;;6.00;;
76065;SDS011;64763;48.928;8.474;2023-07-24T07:08:15;10.33;;;6.23;;
76065;SDS011;64763;48.928;8.474;2023-07-24T07:10:43;10.20;;;6.30;;
76065;SDS011;64763;48.928;8.474;2023-07-24T07:13:08;9.88;;;6.05;;
76065;SDS011;64763;48.928;8.474;2023-07-24T07:15:35;11.63;;;6.20;;
76065;SDS011;64763;48.928;8.474;2023-07-24T07:18:00;9.02;;;5.63;;
76065;SDS011;64763;48.928;8.474;2023-07-24T07:20:25;13.13;;;7.33;;
76065;SDS011;64763;48.928;8.474;2023-07-24T07:22:50;11.83;;;7.97;;
76065;SDS011;64763;48.928;8.474;2023-07-24T07:25:15;13.33;;;8.60;;
76065;SDS011;64763;48.928;8.474;2023-07-24T07:27:41;14.60;;;8.87;;
76065;SDS011;64763;48.928;8.474;2023-07-24T07:30:06;14.47;;;8.60;;
76065;SDS011;64763;48.928;8.474;2023-07-24T07:32:31;14.05;;;8.32;;
76065;SDS011;64763;48.928;8.474;2023-07-24T07:34:56;15.37;;;8.60;;
76065;SDS011;64763;48.928;8.474;2023-07-24T07:37:22;14.97;;;9.77;;
76065;SDS011;64763;48.928;8.474;2023-07-24T07:39:47;13.85;;;9.13;;
76065;SDS011;64763;48.928;8.474;2023-07-24T07:42:12;17.77;;;9.70;;
76065;SDS011;64763;48.928;8.474;2023-07-24T07:44:37;12.57;;;8.57;;
76065;SDS011;64763;48.928;8.474;2023-07-24T07:47:03;12.97;;;7.73;;
76065;SDS011;64763;48.928;8.474;2023-07-24T07:49:28;14.60;;;7.88;;
76065;SDS011;64763;48.928;8.474;2023-07-24T07:51:54;13.50;;;7.93;;
76065;SDS011;64763;48.928;8.474;2023-07-24T07:54:19;13.23;;;8.13;;
76065;SDS011;64763;48.928;8.474;2023-07-24T07:56:44;12.70;;;8.23;;
76065;SDS011;64763;48.928;8.474;2023-07-24T07:59:09;17.53;;;7.77;;
76065;SDS011;64763;48.928;8.474;2023-07-24T08:01:36;14.07;;;8.60;;
76065;SDS011;64763;48.928;8.474;2023-07-24T08:04:01;12.82;;;8.65;;
76065;SDS011;64763;48.928;8.474;2023-07-24T08:06:26;12.70;;;7.67;;
76065;SDS011;64763;48.928;8.474;2023-07-24T08:08:51;14.73;;;9.02;;
76065;SDS011;64763;48.928;8.474;2023-07-24T08:11:17;12.57;;;8.37;;
76065;SDS011;64763;48.928;8.474;2023-07-24T08:13:42;16.70;;;9.43;;
76065;SDS011;64763;48.928;8.474;2023-07-24T08:16:13;17.33;;;9.63;;
76065;SDS011;64763;48.928;8.474;2023-07-24T08:18:43;14.25;;;9.30;;
76065;SDS011;64763;48.928;8.474;2023-07-24T08:21:12;13.75;;;9.43;;
76065;SDS011;64763;48.928;8.474;2023-07-24T08:23:38;13.45;;;8.95;;
76065;SDS011;64763;48.928;8.474;2023-07-24T08:26:03;12.77;;;8.63;;
76065;SDS011;64763;48.928;8.474;2023-07-24T08:28:29;11.77;;;7.57;;
76065;SDS011;64763;48.928;8.474;2023-07-24T08:30:57;12.67;;;7.83;;
76065;SDS011;64763;48.928;8.474;2023-07-24T08:33:23;12.45;;;7.57;;
76065;SDS011;64763;48.928;8.474;2023-07-24T08:35:53;12.43;;;8.37;;
76065;SDS011;64763;48.928;8.474;2023-07-24T08:38:21;11.43;;;7.28;;
76065;SDS011;64763;48.928;8.474;2023-07-24T08:40:47;11.77;;;8.13;;
76065;SDS011;64763;48.928;8.474;2023-07-24T08:43:12;20.23;;;8.03;;
76065;SDS011;64763;48.928;8.474;2023-07-24T08:45:37;12.25;;;7.60;;
76065;SDS011;64763;48.928;8.474;2023-07-24T08:48:03;10.67;;;7.77;;
76065;SDS011;64763;48.928;8.474;2023-07-24T08:50:28;11.47;;;7.03;;
76065;SDS011;64763;48.928;8.474;2023-07-24T08:52:54;12.02;;;7.28;;
76065;SDS011;64763;48.928;8.474;2023-07-24T08:55:19;14.37;;;8.63;;
76065;SDS011;64763;48.928;8.474;2023-07-24T08:57:45;11.18;;;8.05;;
76065;SDS011;64763;48.928;8.474;2023-07-24T09:00:10;11.18;;;7.90;;
76065;SDS011;64763;48.928;8.474;2023-07-24T09:02:36;13.02;;;8.23;;
76065;SDS011;64763;48.928;8.474;2023-07-24T09:05:01;10.57;;;7.43;;
76065;SDS011;64763;48.928;8.474;2023-07-24T09:07:26;11.23;;;7.93;;
76065;SDS011;64763;48.928;8.474;2023-07-24T09:09:51;11.90;;;7.50;;
76065;SDS011;64763;48.928;8.474;2023-07-24T09:12:17;9.77;;;7.03;;
76065;SDS011;64763;48.928;8.474;2023-07-24T09:14:43;13.07;;;7.45;;
76065;SDS011;64763;48.928;8.474;2023-07-24T09:17:10;10.63;;;7.50;;
76065;SDS011;64763;48.928;8.474;2023-07-24T09:19:36;13.63;;;8.07;;
76065;SDS011;64763;48.928;8.474;2023-07-24T09:22:08;11.30;;;8.48;;
76065;SDS011;64763;48.928;8.474;2023-07-24T09:24:35;11.18;;;8.18;;
76065;SDS011;64763;48.928;8.474;2023-07-24T09:27:00;11.20;;;7.78;;
76065;SDS011;64763;48.928;8.474;2023-07-24T09:29:30;12.30;;;8.45;;
76065;SDS011;64763;48.928;8.474;2023-07-24T09:31:55;10.38;;;7.43;;
76065;SDS011;64763;48.928;8.474;2023-07-24T09:34:20;15.43;;;8.30;;
76065;SDS011;64763;48.928;8.474;2023-07-24T09:36:46;11.83;;;7.93;;
76065;SDS011;64763;48.928;8.474;2023-07-24T09:39:11;12.37;;;7.83;;
76065;SDS011;64763;48.928;8.474;2023-07-24T09:41:37;11.63;;;8.13;;
76065;SDS011;64763;48.928;8.474;2023-07-24T09:44:02;12.15;;;8.15;;
76065;SDS011;64763;48.928;8.474;2023-07-24T09:46:28;14.27;;;7.00;;
76065;SDS011;64763;48.928;8.474;2023-07-24T09:48:55;12.15;;;8.55;;
76065;SDS011;64763;48.928;8.474;2023-07-24T09:51:21;11.80;;;8.18;;
76065;SDS011;64763;48.928;8.474;2023-07-24T09:53:48;12.38;;;8.23;;
76065;SDS011;64763;48.928;8.474;2023-07-24T09:56:17;14.02;;;9.15;;
76065;SDS011;64763;48.928;8.474;2023-07-24T09:58:43;10.63;;;8.80;;
76065;SDS011;64763;48.928;8.474;2023-07-24T10:01:09;13.13;;;8.45;;
76065;SDS011;64763;48.928;8.474;2023-07-24T10:03:35;14.23;;;9.50;;
76065;SDS011;64763;48.928;8.474;2023-07-24T10:06:01;11.70;;;8.52;;
76065;SDS011;64763;48.928;8.474;2023-07-24T10:08:26;14.30;;;8.32;;
76065;SDS011;64763;48.928;8.474;2023-07-24T10:10:52;14.32;;;8.00;;
76065;SDS011;64763;48.928;8.474;2023-07-24T10:13:18;12.55;;;8.50;;
76065;SDS011;64763;48.928;8.474;2023-07-24T10:15:44;11.50;;;7.82;;
76065;SDS011;64763;48.928;8.474;2023-07-24T10:18:11;12.43;;;7.32;;
76065;SDS011;64763;48.928;8.474;2023-07-24T10:20:37;11.88;;;7.05;;
76065;SDS011;64763;48.928;8.474;2023-07-24T10:23:03;10.05;;;7.10;;
76065;SDS011;64763;48.928;8.474;2023-07-24T10:25:29;10.77;;;7.18;;
76065;SDS011;64763;48.928;8.474;2023-07-24T10:28:00;10.05;;;7.03;;
76065;SDS011;64763;48.928;8.474;2023-07-24T10:30:29;11.20;;;7.22;;
76065;SDS011;64763;48.928;8.474;2023-07-24T10:33:02;10.38;;;7.68;;
76065;SDS011;64763;48.928;8.474;2023-07-24T10:35:35;10.07;;;7.20;;
76065;SDS011;64763;48.928;8.474;2023-07-24T10:38:01;8.18;;;6.25;;
76065;SDS011;64763;48.928;8.474;2023-07-24T10:40:27;9.77;;;6.93;;
76065;SDS011;64763;48.928;8.474;2023-07-24T10:42:59;9.97;;;7.07;;
76065;SDS011;64763;48.928;8.474;2023-07-24T10:45:24;11.13;;;7.30;;
76065;SDS011;64763;48.928;8.474;2023-07-24T10:47:49;9.83;;;6.30;;
76065;SDS011;64763;48.928;8.474;2023-07-24T10:50:16;10.30;;;6.55;;
76065;SDS011;64763;48.928;8.474;2023-07-24T10:52:41;11.77;;;6.20;;
76065;SDS011;64763;48.928;8.474;2023-07-24T10:55:06;8.23;;;6.20;;
76065;SDS011;64763;48.928;8.474;2023-07-24T10:57:32;11.45;;;6.57;;
76065;SDS011;64763;48.928;8.474;2023-07-24T10:59:57;10.27;;;6.60;;
76065;SDS011;64763;48.928;8.474;2023-07-24T11:02:23;10.57;;;6.72;;
76065;SDS011;64763;48.928;8.474;2023-07-24T11:04:49;11.03;;;6.80;;
76065;SDS011;64763;48.928;8.474;2023-07-24T11:07:14;10.67;;;6.83;;
76065;SDS011;64763;48.928;8.474;2023-07-24T11:09:40;9.70;;;6.90;;
76065;SDS011;64763;48.928;8.474;2023-07-24T11:12:14;9.77;;;6.63;;
76065;SDS011;64763;48.928;8.474;2023-07-24T11:14:49;8.75;;;6.53;;
76065;SDS011;64763;48.928;8.474;2023-07-24T11:17:15;9.57;;;6.70;;
76065;SDS011;64763;48.928;8.474;2023-07-24T11:19:40;9.57;;;6.17;;
76065;SDS011;64763;48.928;8.474;2023-07-24T11:22:06;9.50;;;5.47;;
76065;SDS011;64763;48.928;8.474;2023-07-24T11:24:31;9.48;;;6.55;;
76065;SDS011;64763;48.928;8.474;2023-07-24T11:26:56;9.90;;;7.13;;
76065;SDS011;64763;48.928;8.474;2023-07-24T11:29:22;11.67;;;7.00;;
76065;SDS011;64763;48.928;8.474;2023-07-24T11:31:53;9.48;;;6.63;;
76065;SDS011;64763;48.928;8.474;2023-07-24T11:34:18;9.15;;;6.28;;
76065;SDS011;64763;48.928;8.474;2023-07-24T11:36:43;8.57;;;6.07;;
76065;SDS011;64763;48.928;8.474;2023-07-24T11:39:09;9.33;;;6.30;;
76065;SDS011;64763;48.928;8.474;2023-07-24T11:41:34;9.17;;;5.70;;
76065;SDS011;64763;48.928;8.474;2023-07-24T11:43:59;8.63;;;5.43;;
76065;SDS011;64763;48.928;8.474;2023-07-24T11:46:25;8.77;;;6.22;;
76065;SDS011;64763;48.928;8.474;2023-07-24T11:48:51;9.35;;;5.63;;
76065;SDS011;64763;48.928;8.474;2023-07-24T11:51:18;8.43;;;5.30;;
76065;SDS011;64763;48.928;8.474;2023-07-24T11:53:43;8.52;;;5.72;;
76065;SDS011;64763;48.928;8.474;2023-07-24T11:56:13;8.70;;;5.53;;
76065;SDS011;64763;48.928;8.474;2023-07-24T11:58:39;8.35;;;5.90;;
76065;SDS011;64763;48.928;8.474;2023-07-24T12:01:04;8.80;;;5.70;;
76065;SDS011;64763;48.928;8.474;2023-07-24T12:03:29;8.67;;;5.93;;
76065;SDS011;64763;48.928;8.474;2023-07-24T12:05:55;9.00;;;5.47;;
76065;SDS011;64763;48.928;8.474;2023-07-24T12:08:20;7.72;;;4.88;;
76065;SDS011;64763;48.928;8.474;2023-07-24T12:10:48;9.43;;;5.72;;
76065;SDS011;64763;48.928;8.474;2023-07-24T12:13:14;8.70;;;5.22;;
76065;SDS011;64763;48.928;8.474;2023-07-24T12:15:39;8.57;;;5.47;;
76065;SDS011;64763;48.928;8.474;2023-07-24T12:18:04;8.53;;;5.10;;
76065;SDS011;64763;48.928;8.474;2023-07-24T12:20:30;9.30;;;5.75;;
76065;SDS011;64763;48.928;8.474;2023-07-24T12:22:56;8.20;;;5.15;;
76065;SDS011;64763;48.928;8.474;2023-07-24T12:25:21;8.60;;;5.22;;
76065;SDS011;64763;48.928;8.474;2023-07-24T12:27:47;9.60;;;5.28;;
76065;SDS011;64763;48.928;8.474;2023-07-24T12:30:12;8.90;;;4.75;;
76065;SDS011;64763;48.928;8.474;2023-07-24T12:32:37;7.80;;;5.00;;
76065;SDS011;64763;48.928;8.474;2023-07-24T12:35:03;8.07;;;5.30;;
76065;SDS011;64763;48.928;8.474;2023-07-24T12:37:28;6.97;;;4.53;;
76065;SDS011;64763;48.928;8.474;2023-07-24T12:39:53;8.32;;;5.10;;
76065;SDS011;64763;48.928;8.474;2023-07-24T12:42:19;9.10;;;5.50;;
76065;SDS011;64763;48.928;8.474;2023-07-24T12:44:44;7.60;;;4.67;;
76065;SDS011;64763;48.928;8.474;2023-07-24T12:47:10;7.30;;;4.87;;
76065;SDS011;64763;48.928;8.474;2023-07-24T12:49:35;7.43;;;4.75;;
76065;SDS011;64763;48.928;8.474;2023-07-24T12:52:00;7.70;;;4.60;;
76065;SDS011;64763;48.928;8.474;2023-07-24T12:54:25;7.90;;;4.90;;
76065;SDS011;64763;48.928;8.474;2023-07-24T12:56:51;8.30;;;5.27;;
76065;SDS011;64763;48.928;8.474;2023-07-24T12:59:19;7.88;;;5.03;;
76065;SDS011;64763;48.928;8.474;2023-07-24T13:01:45;8.52;;;5.63;;
76065;SDS011;64763;48.928;8.474;2023-07-24T13:04:10;7.47;;;4.78;;
76065;SDS011;64763;48.928;8.474;2023-07-24T13:06:35;8.23;;;5.03;;
76065;SDS011;64763;48.928;8.474;2023-07-24T13:09:00;7.72;;;4.85;;
76065;SDS011;64763;48.928;8.474;2023-07-24T13:11:26;7.38;;;4.72;;
76065;SDS011;64763;48.928;8.474;2023-07-24T13:13:53;8.27;;;5.40;;
76065;SDS011;64763;48.928;8.474;2023-07-24T13:16:18;7.03;;;4.50;;
76065;SDS011;64763;48.928;8.474;2023-07-24T13:18:43;7.05;;;4.40;;
76065;SDS011;64763;48.928;8.474;2023-07-24T13:21:08;7.37;;;4.43;;
76065;SDS011;64763;48.928;8.474;2023-07-24T13:23:34;8.00;;;5.10;;
76065;SDS011;64763;48.928;8.474;2023-07-24T13:25:59;7.22;;;4.97;;
76065;SDS011;64763;48.928;8.474;2023-07-24T13:28:24;8.40;;;4.70;;
76065;SDS011;64763;48.928;8.474;2023-07-24T13:30:49;7.37;;;4.50;;
76065;SDS011;64763;48.928;8.474;2023-07-24T13:33:15;7.70;;;4.90;;
76065;SDS011;64763;48.928;8.474;2023-07-24T13:35:40;7.32;;;4.60;;
76065;SDS011;64763;48.928;8.474;2023-07-24T13:38:05;8.40;;;5.03;;
76065;SDS011;64763;48.928;8.474;2023-07-24T13:40:33;7.75;;;4.57;;
76065;SDS011;64763;48.928;8.474;2023-07-24T13:42:58;7.23;;;4.63;;
76065;SDS011;64763;48.928;8.474;2023-07-24T13:45:23;8.80;;;5.03;;
76065;SDS011;64763;48.928;8.474;2023-07-24T13:47:48;8.20;;;4.73;;
76065;SDS011;64763;48.928;8.474;2023-07-24T13:50:14;7.32;;;4.85;;
76065;SDS011;64763;48.928;8.474;2023-07-24T13:52:39;7.03;;;4.90;;
76065;SDS011;64763;48.928;8.474;2023-07-24T13:55:04;7.60;;;4.47;;
76065;SDS011;64763;48.928;8.474;2023-07-24T13:57:29;6.60;;;4.45;;
76065;SDS011;64763;48.928;8.474;2023-07-24T13:59:54;8.03;;;4.80;;
76065;SDS011;64763;48.928;8.474;2023-07-24T14:02:20;7.03;;;4.40;;
76065;SDS011;64763;48.928;8.474;2023-07-24T14:04:45;8.70;;;5.00;;
76065;SDS011;64763;48.928;8.474;2023-07-24T14:07:10;9.40;;;4.47;;
76065;SDS011;64763;48.928;8.474;2023-07-24T14:09:38;7.18;;;4.47;;
76065;SDS011;64763;48.928;8.474;2023-07-24T14:12:03;7.57;;;4.60;;
76065;SDS011;64763;48.928;8.474;2023-07-24T14:14:28;7.00;;;4.53;;
76065;SDS011;64763;48.928;8.474;2023-07-24T14:16:53;6.43;;;3.87;;
76065;SDS011;64763;48.928;8.474;2023-07-24T14:19:19;7.03;;;4.20;;
76065;SDS011;64763;48.928;8.474;2023-07-24T14:21:44;7.53;;;4.03;;
76065;SDS011;64763;48.928;8.474;2023-07-24T14:24:09;7.18;;;4.35;;
76065;SDS011;64763;48.928;8.474;2023-07-24T14:26:34;8.37;;;4.20;;
76065;SDS011;64763;48.928;8.474;2023-07-24T14:29:02;6.13;;;4.13;;
76065;SDS011;64763;48.928;8.474;2023-07-24T14:31:27;7.50;;;4.50;;